Latest Coastal Weather Observations for Bundaberg

IDQ60701

Issued at 5:52 pm EST Wednesday 10 August 2022 (issued every 10 minutes, with the page automatically refreshed every 10 minutes)

About coastal observations | Map of coastal stations | Coastal observations for QLD | Marine services | Other Formats
Station Details ID: 039128 Name: BUNDABERG AERO Lat: -24.91 Lon: 152.32 Height: 30.82 m
Data from the previous 72 hours. | See also: Recent months at Bundaberg
Date/Time
EST
Wind Sea
Height
m
Swell Vis
km
Cloud Weather Temp
°C
Press
MSL
hPa
Rain since
9am
mm
Dir  Spd
kts
Gust
kts
Height
m
Period
s
Dir
10/05:30pm ESE 8 11 - - - - 10 - - 17.0 1022.4 0.0
10/05:00pm ESE 12 15 - - - - 10 - - 18.2 1022.0 0.0
10/04:30pm ESE 13 17 - - - - 10 - - 19.0 1021.8 0.0
10/04:00pm ESE 14 18 - - - - 10 - - 19.6 1021.6 0.0
10/03:30pm ESE 16 20 - - - - 10 Partly cloudy - 20.3 1021.4 0.0
10/03:00pm SE 10 19 - - - - 10 Partly cloudy - 20.5 1021.5 0.0
10/02:30pm SE 9 16 - - - - 10 - - 21.5 1021.6 0.0
10/02:00pm SSE 9 16 - - - - 10 - - 21.5 1021.9 0.0
10/01:30pm SE 11 16 - - - - 10 - - 21.2 1022.2 0.0
10/01:00pm SSE 9 18 - - - - 10 - - 21.4 1022.4 0.0
10/12:30pm SE 11 16 - - - - 10 - - 21.2 1022.8 0.0
10/12:00pm S 9 12 - - - - 10 - - 20.4 1023.4 0.0
10/11:30am SSE 9 15 - - - - 10 - - 20.1 1023.6 0.0
10/11:00am SSE 10 14 - - - - 10 - - 20.0 1023.8 0.0
10/10:30am SSE 9 13 - - - - 10 - - 19.0 1024.2 0.0
10/10:00am SSE 14 20 - - - - 10 - - 18.4 1024.4 0.0
10/09:30am SSE 12 17 - - - - 10 - - 17.6 1024.4 0.0
10/09:00am SSE 12 16 - - - - 10 - - 16.3 1024.3 0.0
10/08:30am SSE 10 14 - - - - 10 - - 14.8 1024.0 0.0
10/08:00am S 6 9 - - - - 10 - - 13.1 1023.9 0.0
10/07:30am S 6 9 - - - - 10 - - 11.8 1023.7 0.0
10/07:00am SSW 7 8 - - - - 10 - - 10.7 1023.2 0.0
10/06:30am SSW 5 7 - - - - 10 - - 9.9 1022.7 0.0
10/06:00am SSW 5 7 - - - - 10 - - 9.8 1022.2 0.0
10/05:30am SSW 6 9 - - - - 10 - - 9.9 1021.7 0.0
10/05:00am SW 6 7 - - - - 10 - - 9.4 1021.4 0.0
10/04:30am SSW 5 6 - - - - 10 - - 9.3 1020.9 0.0
10/04:00am SW 4 5 - - - - 10 - - 9.5 1020.8 0.0
10/03:30am SW 5 5 - - - - 10 - - 9.8 1021.1 0.0
10/03:00am SW 5 6 - - - - 10 - - 9.9 1021.0 0.0
10/02:30am SW 5 7 - - - - 10 - - 10.2 1021.2 0.0
10/02:00am SSW 5 7 - - - - 10 - - 10.5 1021.3 0.0
10/01:30am SSW 7 7 - - - - 10 - - 11.0 1021.2 0.0
10/01:00am SSW 6 7 - - - - 10 - - 11.2 1021.2 0.0
10/12:30am SSW 7 8 - - - - 10 - - 11.3 1021.2 0.0
10/12:00am S 7 8 - - - - 10 - - 11.5 1021.1 0.0
 
Date/Time
EST
Wind Sea
Height
m
Swell Vis
km
Cloud Weather Temp
°C
Press
MSL
hPa
Rain since
9am
mm
Dir  Spd
kts
Gust
kts
Height
m
Period
s
Dir
09/11:30pm SSW 6 6 - - - - 10 - - 11.5 1021.3 0.0
09/11:00pm SSW 7 8 - - - - 10 - - 12.0 1021.5 0.0
09/10:30pm SSW 7 7 - - - - 10 - - 12.1 1021.6 0.0
09/10:00pm SSW 7 8 - - - - 10 - - 12.5 1021.5 0.0
09/09:30pm SSW 6 10 - - - - 10 - - 12.5 1021.4 0.0
09/09:00pm CALM 0 0 - - - - 10 - - 11.7 1021.1 0.0
09/08:30pm SE 4 5 - - - - 10 - - 12.7 1020.8 0.0
09/08:00pm SE 5 7 - - - - 10 - - 11.7 1020.6 0.0
09/07:30pm ESE 2 3 - - - - 10 - - 12.9 1020.1 0.0
09/07:00pm ESE 3 5 - - - - 10 - - 13.3 1019.8 0.0
09/06:30pm CALM 0 0 - - - - 10 - - 15.5 1019.3 0.0
09/06:00pm ENE 5 6 - - - - 10 - - 16.9 1018.8 0.0
09/05:30pm NE 5 7 - - - - 10 - - 17.3 1018.6 0.0
09/05:00pm W 4 5 - - - - 10 - - 19.9 1018.3 0.0
09/04:30pm W 5 8 - - - - 10 - - 20.8 1018.0 0.0
09/04:00pm SSW 5 8 - - - - 10 - - 21.3 1017.6 0.0
09/03:30pm WSW 6 9 - - - - 10 - - 21.2 1017.5 0.0
09/03:00pm WSW 6 11 - - - - 10 - - 21.5 1017.4 0.0
09/02:30pm SW 6 10 - - - - 10 - - 20.9 1017.5 0.0
09/02:00pm SW 5 9 - - - - 10 - - 21.0 1017.9 0.0
09/01:30pm WSW 4 7 - - - - 10 - - 20.9 1018.2 0.0
09/01:00pm S 7 11 - - - - 10 - - 20.8 1018.7 0.0
09/12:30pm S 5 10 - - - - 10 - - 20.5 1019.1 0.0
09/12:00pm SSE 6 11 - - - - 10 - - 20.6 1019.8 0.0
09/11:30am SW 7 12 - - - - 10 - - 19.6 1020.2 0.0
09/11:00am SSW 6 10 - - - - 10 - - 19.3 1020.6 0.0
09/10:30am SSW 9 11 - - - - 10 - - 18.6 1021.1 0.0
09/10:00am S 7 11 - - - - 10 - - 17.6 1021.4 0.0
09/09:30am SSW 8 11 - - - - 10 - - 16.7 1021.6 0.0
09/09:00am SSW 7 9 - - - - 10 - - 15.6 1021.5 0.0
09/08:30am SSW 6 9 - - - - 10 - - 13.4 1021.4 0.0
09/08:00am SW 7 10 - - - - 10 - - 11.8 1021.1 0.0
09/07:30am SW 8 10 - - - - 10 - - 10.4 1020.9 0.0
09/07:00am SW 7 10 - - - - 10 - - 9.6 1020.5 0.0
09/06:30am SW 8 10 - - - - 10 - - 9.1 1020.1 0.0
09/06:00am SW 8 9 - - - - 10 - - 9.1 1019.9 0.0
09/05:30am SW 8 11 - - - - 10 - - 9.0 1019.6 0.0
09/05:00am SW 7 9 - - - - 10 - - 9.1 1019.2 0.0
09/04:30am SW 6 8 - - - - 10 - - 8.8 1018.9 0.0
09/04:00am SW 8 9 - - - - 10 - - 10.0 1019.0 0.0
09/03:30am SW 8 10 - - - - 10 - - 10.3 1019.0 0.0
09/03:00am SW 8 11 - - - - 10 - - 10.2 1019.0 0.0
09/02:30am SW 7 10 - - - - 10 - - 10.0 1019.2 0.0
09/02:00am SW 7 9 - - - - 10 - - 10.0 1019.3 0.0
09/01:30am WSW 4 6 - - - - 10 - - 7.6 1019.6 0.0
09/01:00am SW 4 5 - - - - 10 - - 8.4 1019.8 0.0
09/12:30am SSW 3 4 - - - - 10 - - 9.7 1019.8 0.0
09/12:00am SW 6 7 - - - - 10 - - 11.0 1019.8 0.0
 
Date/Time
EST
Wind Sea
Height
m
Swell Vis
km
Cloud Weather Temp
°C
Press
MSL
hPa
Rain since
9am
mm
Dir  Spd
kts
Gust
kts
Height
m
Period
s
Dir
08/11:30pm SW 5 6 - - - - 10 - - 9.8 1019.7 0.0
08/11:00pm CALM 0 0 - - - - 10 - - 9.1 1019.8 0.0
08/10:30pm CALM 0 0 - - - - 10 - - 9.4 1019.9 0.0
08/10:00pm SSW 3 4 - - - - 10 - - 10.1 1019.8 0.0
08/09:30pm SSW 1 3 - - - - 10 - - 10.2 1019.7 0.0
08/09:00pm WSW 4 5 - - - - 10 - - 10.6 1019.6 0.0
08/08:30pm CALM 0 3 - - - - 10 - - 11.0 1019.2 0.0
08/08:00pm CALM 0 0 - - - - 10 - - 11.4 1019.1 0.0
08/07:30pm CALM 0 0 - - - - 10 - - 11.7 1019.0 0.0
08/07:00pm CALM 0 0 - - - - 10 - - 12.9 1018.5 0.0
08/06:30pm ENE 1 3 - - - - 10 - - 14.3 1018.2 0.0
08/06:00pm SSE 4 4 - - - - 10 - - 16.0 1017.9 0.0
08/05:30pm SSE 4 5 - - - - 10 - - 17.4 1017.7 0.0
08/05:00pm SSE 6 7 - - - - 10 - - 18.9 1017.4 0.0
08/04:30pm SSE 7 9 - - - - 10 - - 19.8 1017.1 0.0
08/04:00pm SSW 7 10 - - - - 10 - - 20.4 1016.8 0.0
08/03:30pm SSW 9 12 - - - - 10 - - 20.4 1016.7 0.0
08/03:00pm S 9 14 - - - - 10 - - 20.7 1016.6 0.0
08/02:30pm S 10 15 - - - - 10 - - 20.4 1016.6 0.0
08/02:00pm S 8 12 - - - - 10 - - 20.5 1016.8 0.0
08/01:30pm SSW 10 14 - - - - 10 - - 20.2 1017.0 0.0
08/01:00pm S 10 15 - - - - 10 - - 20.0 1017.4 0.0
08/12:30pm SSW 10 15 - - - - 10 - - 20.5 1018.0 0.0
08/12:00pm S 11 15 - - - - 10 - - 19.7 1018.3 0.0
08/11:30am SSW 12 16 - - - - 10 - - 19.3 1018.8 0.0
08/11:00am SSW 11 16 - - - - 10 - - 19.0 1019.3 0.0
08/10:30am S 11 16 - - - - 10 - - 18.6 1019.8 0.0
08/10:00am SSW 10 15 - - - - 10 - - 17.5 1020.2 0.0
08/09:30am SSW 11 16 - - - - 10 - - 16.7 1020.4 0.0
08/09:00am SSW 10 15 - - - - 10 - - 16.0 1020.5 0.0
08/08:30am SSW 7 11 - - - - 10 - - 13.9 1020.3 0.0
08/08:00am SW 7 10 - - - - 10 - - 12.7 1020.1 0.0
08/07:30am WSW 7 9 - - - - 10 - - 11.2 1019.9 0.0
08/07:00am SW 5 7 - - - - 10 - - 9.5 1019.5 0.0
08/06:30am SSW 4 6 - - - - 10 - - 9.1 1019.2 0.0
08/06:00am SSW 5 7 - - - - 10 - - 9.4 1018.9 0.0
08/05:30am SW 6 8 - - - - 10 - - 10.0 1018.6 0.0
08/05:00am SW 6 7 - - - - 10 - - 10.3 1018.2 0.0
08/04:30am SW 6 9 - - - - 10 - - 10.7 1017.9 0.0
08/04:00am SW 7 9 - - - - 10 - - 10.6 1017.6 0.0
08/03:30am SW 6 7 - - - - 10 - - 10.3 1017.6 0.0
08/03:00am SW 7 9 - - - - 10 - - 10.6 1017.5 0.0
08/02:30am SW 6 7 - - - - 10 - - 10.7 1017.4 0.0
08/02:00am SW 5 7 - - - - 10 - - 10.5 1017.5 0.0
08/01:30am SW 4 6 - - - - 10 - - 10.7 1017.6 0.0
08/01:00am SW 5 8 - - - - 10 - - 11.4 1017.9 0.0
08/12:30am SW 7 9 - - - - 10 - - 11.6 1018.2 0.0
08/12:00am SSW 4 5 - - - - 10 - - 11.7 1018.1 0.0
 
Date/Time
EST
Wind Sea
Height
m
Swell Vis
km
Cloud Weather Temp
°C
Press
MSL
hPa
Rain since
9am
mm
Dir  Spd
kts
Gust
kts
Height
m
Period
s
Dir
07/11:30pm SW 4 6 - - - - 10 - - 12.0 1018.1 0.0
07/11:00pm SW 5 7 - - - - 10 - - 12.2 1018.3 0.0
07/10:30pm SSW 5 6 - - - - 10 - - 13.0 1018.3 0.0
07/10:00pm SSW 4 6 - - - - 10 - - 13.5 1018.3 0.0
07/09:30pm SSW 4 5 - - - - 10 - - 14.1 1018.2 0.0
07/09:00pm SSW 5 6 - - - - 10 - - 13.6 1018.2 0.0
07/08:30pm CALM 0 0 - - - - 10 - - 12.4 1018.0 0.0
07/08:00pm CALM 0 3 - - - - 10 - - 13.4 1017.6 0.0
07/07:30pm SW 4 5 - - - - 10 - - 15.0 1017.2 0.0
07/07:00pm SSW 3 5 - - - - 10 - - 15.8 1016.9 0.0
07/06:30pm SSW 3 4 - - - - 10 - - 16.1 1016.5 0.0
07/06:00pm SW 5 6 - - - - 10 - - 17.4 1016.0 0.0

Other formats

Comma delimited format used in spreadsheet applications
http://www.bom.gov.au/fwo/IDQ60701/IDQ60701.94387.axf

JavaScript Object Notation format (JSON) in row-major order
http://www.bom.gov.au/fwo/IDQ60701/IDQ60701.94387.json

Data quality

Most of these data are generated automatically and are frequently updated. Quality checks on data are not normally performed. It is possible for incorrect values to appear. Refer to information at About Latest Weather Observations and please check the disclaimer before using these data.